Beatrice, NE

1:12 PM CST on December 08, 2019 (GMT -0600)
Beatrice Municipal

Weather History for KBIE - October, 2019

Change the Weather History Date:

Saturday, October 19, 2019

  Actual Average Record
Temperature  
Mean Temperature 58 °F -  
Max Temperature 68 °F 66 °F 87 °F (2003)
Min Temperature 47 °F 37 °F 15 °F (1972)
Degree Days  
Heating Degree Days 8    
Growing Degree Days 8 (Base 50)    
Moisture  
Dew Point 44 °F    
Average Humidity 68    
Maximum Humidity 96    
Minimum Humidity 31    
Precipitation  
Precipitation 0.06 in - - ()
Sea Level Pressure  
Sea Level Pressure 29.78 in    
Wind  
Wind Speed 6 mph (NW)    
Max Wind Speed 14 mph    
Max Gust Speed 20 mph    
Visibility 10 miles    
Events Rain    
Averages and records for this station are not official NWS values.
T = Trace of Precipitation, MM = Missing Value Source: NWS Daily Summary

Daily Weather History Graph

Daily Weather History Graph

Search for Another Location

Airport or City:

Astronomy

Oct. 19, 2019 Rise Set
Actual Time 7:41 AM CDT 6:41 PM CDT
Civil Twilight 7:14 AM CDT 7:09 PM CDT
Nautical Twilight 6:42 AM CDT 7:40 PM CDT
Astronomical Twilight 6:11 AM CDT 8:12 PM CDT
Moon 10:51 PM CDT (10/19) 1:15 PM CDT (10/19)
Length of Visible Light 11h 54m
Length of Day
10h 59m
Waning Gibbous, 69% of the Moon is Illuminated
Oct 19
Waning Gibbous
Oct 21
Last Quarter
Oct 27
New
Nov 4
First Quarter
Nov 12
Full

Hourly Weather History & Observations

Time (CDT) Temp. Dew Point Humidity Pressure Visibility Wind Dir Wind Speed Gust Speed Precip Events Conditions
12:15 AM 60.1 °F 50.5 °F 71% 29.72 in 10.0 mi SW 9.2 mph - N/A Rain Light Rain
12:35 AM 58.3 °F 52.0 °F 80% 29.70 in 10.0 mi West 5.8 mph - 0.01 in Rain Rain
12:55 AM 56.7 °F 53.2 °F 88% 29.71 in 7.0 mi SW 9.2 mph - 0.05 in Rain Light Rain
1:15 AM 56.3 °F 53.2 °F 89% 29.71 in 10.0 mi West 8.1 mph - N/A   Overcast
1:35 AM 55.8 °F 52.3 °F 88% 29.71 in 10.0 mi West 5.8 mph - N/A   Mostly Cloudy
1:55 AM 55.4 °F 52.2 °F 89% 29.71 in 10.0 mi West 5.8 mph - N/A   Mostly Cloudy
2:15 AM 54.5 °F 52.3 °F 92% 29.73 in 10.0 mi West 5.8 mph - 0.01 in Rain Light Rain
2:35 AM 54.1 °F 51.8 °F 92% 29.73 in 10.0 mi NW 6.9 mph - 0.01 in   Mostly Cloudy
2:55 AM 54.0 °F 52.2 °F 94% 29.75 in 10.0 mi WNW 5.8 mph - 0.01 in Rain Light Rain
3:15 AM 53.6 °F 52.2 °F 95% 29.72 in 10.0 mi NNW 8.1 mph - N/A Rain Light Rain
3:35 AM 53.2 °F 51.1 °F 92% 29.73 in 10.0 mi North 6.9 mph - N/A   Light Drizzle
3:55 AM 52.9 °F 50.4 °F 91% 29.73 in 10.0 mi North 5.8 mph - N/A   Overcast
4:15 AM 52.5 °F 50.4 °F 92% 29.73 in 10.0 mi NNE 5.8 mph - N/A   Overcast
4:35 AM 52.7 °F 50.4 °F 92% 29.74 in 10.0 mi North 4.6 mph - N/A   Overcast
4:55 AM 52.2 °F 49.6 °F 91% 29.73 in 10.0 mi NE 3.5 mph - N/A   Mostly Cloudy
5:15 AM 50.4 °F 48.6 °F 94% 29.75 in 10.0 mi NW 4.6 mph - N/A   Scattered Clouds
5:35 AM 50.2 °F 48.6 °F 94% 29.76 in 10.0 mi WNW 6.9 mph - N/A   Scattered Clouds
5:55 AM 49.1 °F 47.8 °F 95% 29.76 in 10.0 mi NNW 3.5 mph - N/A   Mostly Cloudy
6:15 AM 50.0 °F 48.6 °F 95% 29.76 in 10.0 mi Calm Calm - N/A   Overcast
6:35 AM 50.5 °F 48.7 °F 94% 29.77 in 10.0 mi NNW 4.6 mph - N/A   Overcast
6:55 AM 50.9 °F 48.4 °F 91% 29.78 in 10.0 mi NNW 5.8 mph - N/A   Overcast
7:15 AM 50.2 °F 47.7 °F 91% 29.78 in 10.0 mi NNW 4.6 mph - N/A   Mostly Cloudy
7:35 AM 47.8 °F 46.2 °F 94% 29.78 in 10.0 mi NW 5.8 mph - N/A   Scattered Clouds
7:55 AM 47.8 °F 46.6 °F 95% 29.79 in 10.0 mi NW 8.1 mph - N/A   Clear
8:15 AM 47.7 °F 46.6 °F 96% 29.80 in 10.0 mi NW 8.1 mph - N/A   Clear
8:30 AM 49.1 °F 47.5 °F 94% 29.81 in 10.0 mi NW 9.2 mph - N/A   Clear
8:55 AM 50.5 °F 47.8 °F 90% 29.82 in 10.0 mi NW 8.1 mph - N/A   Clear
9:15 AM 51.4 °F 47.5 °F 86% 29.83 in 10.0 mi NW 9.2 mph - N/A   Clear
9:35 AM 53.1 °F 47.8 °F 82% 29.83 in 10.0 mi NNW 8.1 mph - N/A   Clear
9:55 AM 54.7 °F 47.8 °F 78% 29.84 in 10.0 mi NNW 9.2 mph - N/A   Clear
10:15 AM 56.3 °F 47.7 °F 73% 29.84 in 10.0 mi NNW 9.2 mph - N/A   Clear
10:35 AM 57.2 °F 47.5 °F 70% 29.85 in 10.0 mi NNW 9.2 mph 19.6 mph N/A   Clear
10:55 AM 58.5 °F 47.3 °F 66% 29.84 in 10.0 mi NNW 5.8 mph - N/A   Clear
11:15 AM 59.9 °F 45.3 °F 59% 29.84 in 10.0 mi NW 6.9 mph - N/A   Clear
11:35 AM 61.0 °F 46.2 °F 58% 29.83 in 10.0 mi NNW 6.9 mph - N/A   Clear
11:55 AM 62.2 °F 45.9 °F 55% 29.83 in 10.0 mi NW 9.2 mph - N/A   Clear
12:15 PM 63.5 °F 44.8 °F 51% 29.83 in 10.0 mi NW 8.1 mph - N/A   Clear
12:35 PM 64.6 °F 45.7 °F 50% 29.83 in 10.0 mi NNW 13.8 mph 19.6 mph N/A   Clear
12:55 PM 64.2 °F 43.3 °F 47% 29.82 in 10.0 mi NNW 10.4 mph - N/A   Clear
1:15 PM 64.9 °F 42.3 °F 44% 29.82 in 10.0 mi NW 4.6 mph 10.4 mph N/A   Clear
1:35 PM 65.8 °F 41.7 °F 41% 29.82 in 10.0 mi NNW 8.1 mph - N/A   Clear
1:55 PM 66.4 °F 40.8 °F 39% 29.81 in 10.0 mi North 9.2 mph 17.3 mph N/A   Clear
2:15 PM 67.1 °F 39.6 °F 36% 29.80 in 10.0 mi North 5.8 mph - N/A   Clear
2:35 PM 67.6 °F 40.6 °F 37% 29.79 in 10.0 mi NW 10.4 mph - N/A   Clear
2:55 PM 67.8 °F 39.4 °F 35% 29.79 in 10.0 mi West 9.2 mph - N/A   Clear
3:15 PM 67.5 °F 39.2 °F 36% 29.78 in 10.0 mi NW 8.1 mph - N/A   Clear
3:35 PM 68.0 °F 39.0 °F 35% 29.78 in 10.0 mi WNW 8.1 mph - N/A   Clear
3:55 PM 67.8 °F 37.8 °F 33% 29.77 in 10.0 mi West 3.5 mph - N/A   Clear
4:15 PM 68.0 °F 37.8 °F 33% 29.78 in 10.0 mi Calm Calm - N/A   Clear
4:35 PM 68.0 °F 36.3 °F 31% 29.78 in 10.0 mi North 4.6 mph - N/A   Clear
4:55 PM 67.6 °F 36.7 °F 32% 29.77 in 10.0 mi West 3.5 mph - N/A   Clear
5:15 PM 67.3 °F 35.2 °F 31% 29.77 in 10.0 mi Calm Calm - N/A   Clear
5:35 PM 66.6 °F 37.8 °F 35% 29.77 in 10.0 mi West 5.8 mph - N/A   Clear
5:55 PM 66.2 °F 35.4 °F 32% 29.78 in 10.0 mi Calm Calm - N/A   Clear
6:15 PM 65.3 °F 36.5 °F 34% 29.78 in 10.0 mi Calm Calm - N/A   Clear
6:35 PM 62.6 °F 38.1 °F 40% 29.78 in 10.0 mi Calm Calm - N/A   Clear
6:55 PM 57.4 °F 39.6 °F 51% 29.79 in 7.0 mi Calm Calm - N/A   Clear
7:15 PM 56.8 °F 38.3 °F 50% 29.79 in 10.0 mi Calm Calm - N/A   Clear
7:35 PM 55.0 °F 39.4 °F 56% 29.80 in 10.0 mi Calm Calm - N/A   Clear
7:50 PM 52.7 °F 40.1 °F 62% 29.80 in 10.0 mi Calm Calm - N/A   Clear
8:15 PM 52.5 °F 42.1 °F 68% 29.81 in 10.0 mi Calm Calm - N/A   Clear
8:35 PM 51.4 °F 41.2 °F 68% 29.81 in 10.0 mi Calm Calm - N/A   Clear
8:55 PM 51.4 °F 40.6 °F 67% 29.81 in 10.0 mi Calm Calm - N/A   Clear
9:15 PM 48.7 °F 41.2 °F 75% 29.81 in 10.0 mi Calm Calm - N/A   Clear
9:35 PM 48.2 °F 40.6 °F 75% 29.81 in 10.0 mi East 3.5 mph - N/A   Clear
9:55 PM 50.0 °F 39.7 °F 68% 29.81 in 10.0 mi ESE 4.6 mph - N/A   Clear
10:15 PM 50.2 °F 39.2 °F 66% 29.81 in 10.0 mi ESE 3.5 mph - N/A   Clear
10:35 PM 49.8 °F 39.0 °F 66% 29.81 in 10.0 mi SE 4.6 mph - N/A   Clear
10:55 PM 50.0 °F 38.7 °F 65% 29.81 in 10.0 mi SE 3.5 mph - N/A   Clear
11:15 PM 49.6 °F 38.7 °F 66% 29.82 in 10.0 mi Calm Calm - N/A   Clear
11:35 PM 48.9 °F 38.8 °F 68% 29.81 in 10.0 mi SE 4.6 mph - N/A   Clear
11:55 PM 47.1 °F 39.0 °F 73% 29.81 in 10.0 mi SE 4.6 mph - N/A   Clear